createdAt,value
2023-09-24T00:01:56.217Z,50.04
2023-09-24T00:03:58.474Z,49.81
2023-09-24T00:06:08.695Z,50.24
2023-09-24T00:08:11.901Z,48.99
2023-09-24T00:10:13.611Z,49.75
2023-09-24T00:12:15.464Z,50.40
2023-09-24T00:14:17.332Z,50.35
2023-09-24T00:16:19.123Z,50.43
2023-09-24T00:18:21.491Z,50.13
2023-09-24T00:20:23.612Z,50.02
2023-09-24T00:22:27.783Z,49.84
2023-09-24T00:24:29.872Z,50.75
2023-09-24T00:26:31.871Z,50.49
2023-09-24T00:28:33.799Z,50.24
2023-09-24T00:30:37.802Z,50.32
2023-09-24T00:32:39.619Z,49.67
2023-09-24T00:34:41.600Z,49.80
2023-09-24T00:36:43.258Z,50.31
2023-09-24T00:38:45.169Z,49.73
2023-09-24T00:40:46.852Z,50.03
2023-09-24T00:42:51.009Z,50.05
2023-09-24T00:44:53.216Z,49.85
2023-09-24T00:46:57.304Z,49.78
2023-09-24T00:48:59.840Z,49.83
2023-09-24T00:51:05.914Z,49.50
2023-09-24T00:53:07.657Z,49.93
2023-09-24T00:55:10.480Z,49.67
2023-09-24T00:57:12.245Z,49.68
2023-09-24T00:59:14.170Z,50.17
2023-09-24T01:01:17.544Z,50.30
2023-09-24T01:03:20.311Z,50.16
2023-09-24T01:05:23.566Z,50.92
2023-09-24T01:07:25.683Z,50.68
2023-09-24T01:09:27.714Z,50.71
2023-09-24T01:11:32.710Z,50.81
2023-09-24T01:13:41.560Z,51.27
2023-09-24T01:15:48.378Z,50.87
2023-09-24T01:17:50.937Z,51.38
2023-09-24T01:19:57.895Z,51.30
2023-09-24T01:22:02.393Z,50.95
2023-09-24T01:24:04.736Z,50.85
2023-09-24T01:26:06.688Z,51.32
2023-09-24T01:28:09.143Z,51.61
2023-09-24T01:30:11.423Z,51.38
2023-09-24T01:32:13.250Z,50.76
2023-09-24T01:34:15.482Z,50.90
2023-09-24T01:36:18.989Z,50.65
2023-09-24T01:38:21.173Z,51.18
2023-09-24T01:40:25.463Z,51.30
2023-09-24T01:42:27.735Z,51.35
2023-09-24T01:44:31.432Z,51.58
2023-09-24T01:46:33.706Z,51.93
2023-09-24T01:48:36.823Z,51.81
2023-09-24T01:50:42.934Z,52.04
2023-09-24T01:52:46.873Z,51.64
2023-09-24T01:54:48.753Z,51.86
2023-09-24T01:56:50.644Z,51.64
2023-09-24T01:58:53.592Z,52.31
2023-09-24T02:00:55.420Z,52.28
2023-09-24T02:03:02.579Z,52.73
2023-09-24T02:05:07.492Z,52.73
2023-09-24T02:07:09.772Z,52.86
2023-09-24T02:09:15.363Z,53.12
2023-09-24T02:11:17.154Z,52.85
2023-09-24T02:13:21.647Z,53.10
2023-09-24T02:15:24.393Z,53.15
2023-09-24T02:17:27.876Z,53.17
2023-09-24T02:19:29.883Z,52.98
2023-09-24T02:21:32.624Z,53.14
2023-09-24T02:23:36.105Z,53.19
2023-09-24T02:25:38.644Z,53.22
2023-09-24T02:27:41.769Z,53.69
2023-09-24T02:29:43.610Z,53.79
2023-09-24T02:31:45.663Z,54.66
2023-09-24T02:33:48.129Z,55.08
2023-09-24T02:35:50.653Z,55.54
2023-09-24T02:37:54.963Z,55.20
2023-09-24T02:39:57.006Z,55.40
2023-09-24T02:41:58.823Z,55.06
2023-09-24T02:44:02.965Z,54.65
2023-09-24T02:46:07.066Z,54.41
2023-09-24T02:48:09.435Z,54.66
2023-09-24T02:50:14.964Z,54.53
2023-09-24T02:52:16.931Z,55.17
2023-09-24T02:54:19.549Z,54.74
2023-09-24T02:56:21.334Z,54.91
2023-09-24T02:58:23.094Z,55.04
2023-09-24T03:00:36.329Z,55.05
2023-09-24T03:02:39.152Z,55.45
2023-09-24T03:04:42.008Z,55.35
2023-09-24T03:06:44.686Z,55.36
2023-09-24T03:08:50.665Z,55.40
2023-09-24T03:10:53.112Z,55.24
2023-09-24T03:12:55.651Z,54.81
2023-09-24T03:14:57.548Z,55.16
2023-09-24T03:16:59.545Z,55.28
2023-09-24T03:19:06.140Z,54.84
2023-09-24T03:21:13.381Z,54.30
2023-09-24T03:23:15.228Z,54.60
2023-09-24T03:25:18.706Z,54.29
2023-09-24T03:27:20.527Z,54.27
2023-09-24T03:29:22.715Z,54.38
2023-09-24T03:31:24.569Z,54.12
2023-09-24T03:33:28.089Z,54.42
2023-09-24T03:35:30.114Z,54.85
2023-09-24T03:37:32.698Z,55.02
2023-09-24T03:39:34.510Z,55.43
2023-09-24T03:41:36.761Z,55.83
2023-09-24T03:43:38.556Z,55.93
2023-09-24T03:45:40.689Z,55.76
2023-09-24T03:47:43.218Z,56.06
2023-09-24T03:49:45.101Z,55.87
2023-09-24T03:51:46.896Z,55.71
2023-09-24T03:53:48.822Z,55.43
2023-09-24T03:55:50.688Z,55.57
2023-09-24T03:57:52.509Z,55.60
2023-09-24T03:59:56.222Z,55.56
2023-09-24T04:01:57.941Z,55.51
2023-09-24T04:04:01.541Z,55.39
2023-09-24T04:06:11.133Z,55.61
2023-09-24T04:08:12.879Z,55.38
2023-09-24T04:10:15.938Z,55.38
2023-09-24T04:12:18.104Z,55.88
2023-09-24T04:14:21.363Z,56.53
2023-09-24T04:16:23.784Z,56.83
2023-09-24T04:18:28.297Z,57.55
2023-09-24T04:20:34.157Z,58.62
2023-09-24T04:22:36.015Z,59.03
2023-09-24T04:24:37.755Z,59.05
2023-09-24T04:26:39.591Z,59.21
2023-09-24T04:28:41.455Z,59.97
2023-09-24T04:30:44.753Z,60.40
2023-09-24T04:32:53.209Z,60.06
2023-09-24T04:34:56.638Z,59.82
2023-09-24T04:36:58.548Z,60.03
2023-09-24T04:39:00.691Z,59.81
2023-09-24T04:41:03.072Z,59.26
2023-09-24T04:43:07.213Z,58.76
2023-09-24T04:45:13.051Z,58.20
2023-09-24T04:47:14.727Z,57.83
2023-09-24T04:49:16.545Z,57.60
2023-09-24T04:51:18.447Z,57.57
2023-09-24T04:53:20.226Z,57.69
2023-09-24T04:55:23.112Z,57.38
2023-09-24T04:57:26.493Z,57.21
2023-09-24T04:59:29.069Z,56.98
2023-09-24T05:01:31.200Z,56.54
2023-09-24T05:03:36.154Z,56.66
2023-09-24T05:05:43.272Z,56.88
2023-09-24T05:07:45.308Z,56.97
2023-09-24T05:09:47.174Z,57.30
2023-09-24T05:11:48.995Z,56.83
2023-09-24T05:13:50.862Z,56.63
2023-09-24T05:15:55.299Z,56.63
2023-09-24T05:17:57.921Z,56.83
2023-09-24T05:20:00.122Z,57.12
2023-09-24T05:22:01.842Z,56.76
2023-09-24T05:24:05.048Z,57.02
2023-09-24T05:26:12.507Z,56.72
2023-09-24T05:28:15.052Z,57.10
2023-09-24T05:30:16.961Z,57.76
2023-09-24T05:32:18.792Z,57.50
2023-09-24T05:34:20.569Z,56.82
2023-09-24T05:36:24.145Z,57.04
2023-09-24T05:38:28.486Z,57.00
2023-09-24T05:40:30.718Z,56.51
2023-09-24T05:42:32.409Z,56.12
2023-09-24T05:44:35.051Z,55.80
2023-09-24T05:46:36.877Z,55.90
2023-09-24T05:48:38.848Z,55.82
2023-09-24T05:50:40.710Z,56.09
2023-09-24T05:52:42.708Z,56.23
2023-09-24T05:54:44.487Z,56.58
2023-09-24T05:56:47.847Z,56.64
2023-09-24T05:59:08.407Z,56.74
2023-09-24T06:01:20.141Z,56.38
2023-09-24T06:03:22.076Z,56.01
2023-09-24T06:05:24.047Z,56.12
2023-09-24T06:07:29.338Z,56.10
2023-09-24T06:09:31.556Z,55.88
2023-09-24T06:11:36.937Z,55.74
2023-09-24T06:13:40.268Z,55.76
2023-09-24T06:15:45.354Z,55.68
2023-09-24T06:17:48.368Z,55.25
2023-09-24T06:19:50.945Z,55.30
2023-09-24T06:21:52.974Z,55.75
2023-09-24T06:23:55.663Z,54.87
2023-09-24T06:25:58.817Z,54.47
2023-09-24T06:28:03.170Z,54.39
2023-09-24T06:30:07.038Z,54.71
2023-09-24T06:32:08.840Z,54.38
2023-09-24T06:34:10.754Z,54.38
2023-09-24T06:36:12.610Z,54.22
2023-09-24T06:38:15.160Z,54.28
2023-09-24T06:40:16.941Z,53.85
2023-09-24T06:42:20.305Z,53.64
2023-09-24T06:44:24.345Z,54.03
2023-09-24T06:46:26.931Z,53.38
2023-09-24T06:48:30.328Z,53.14
2023-09-24T06:50:36.273Z,53.27
2023-09-24T06:52:43.367Z,53.15
2023-09-24T06:54:45.136Z,52.94
2023-09-24T06:56:46.981Z,53.05
2023-09-24T06:58:48.753Z,53.18
2023-09-24T07:00:51.731Z,52.86
2023-09-24T07:02:53.704Z,52.47
2023-09-24T07:04:55.674Z,52.29
2023-09-24T07:06:57.690Z,51.77
2023-09-24T07:09:03.764Z,51.12
2023-09-24T07:11:25.821Z,51.07
2023-09-24T07:13:27.552Z,50.86
2023-09-24T07:15:31.628Z,51.12
2023-09-24T07:17:34.630Z,51.45
2023-09-24T07:19:39.518Z,51.48
2023-09-24T07:21:41.234Z,51.15
2023-09-24T07:23:43.325Z,51.33
2023-09-24T07:25:45.123Z,51.38
2023-09-24T07:27:48.438Z,52.03
2023-09-24T07:29:50.315Z,51.46
2023-09-24T07:31:52.589Z,50.85
2023-09-24T07:33:55.329Z,50.77
2023-09-24T07:35:57.239Z,50.41
2023-09-24T07:37:59.296Z,50.50
2023-09-24T07:40:03.149Z,50.45
2023-09-24T07:42:05.186Z,50.18
2023-09-24T07:44:07.289Z,50.63
2023-09-24T07:46:13.808Z,51.11
2023-09-24T07:48:17.004Z,51.45
2023-09-24T07:50:21.487Z,51.79
2023-09-24T07:52:23.387Z,51.72
2023-09-24T07:54:25.316Z,52.33
2023-09-24T07:56:27.096Z,52.00
2023-09-24T07:58:33.447Z,52.33
2023-09-24T08:00:35.767Z,52.07
2023-09-24T08:02:40.428Z,51.70
2023-09-24T08:04:42.718Z,51.44
2023-09-24T08:06:44.634Z,51.33
2023-09-24T08:08:55.033Z,51.06
2023-09-24T08:11:02.986Z,50.69
2023-09-24T08:13:06.727Z,50.84
2023-09-24T08:15:08.831Z,50.53
2023-09-24T08:17:11.909Z,50.26
2023-09-24T08:19:13.789Z,49.99
2023-09-24T08:21:15.556Z,49.73
2023-09-24T08:23:19.915Z,49.69
2023-09-24T08:25:21.837Z,49.55
2023-09-24T08:27:23.627Z,49.14
2023-09-24T08:29:25.475Z,49.07
2023-09-24T08:31:27.313Z,49.09
2023-09-24T08:33:29.094Z,48.28
2023-09-24T08:35:31.030Z,48.55
2023-09-24T08:37:34.304Z,49.43
2023-09-24T08:39:37.070Z,49.25
2023-09-24T08:41:44.503Z,48.82
2023-09-24T08:43:47.190Z,48.75
2023-09-24T08:45:49.371Z,48.17
2023-09-24T08:47:51.515Z,48.19
2023-09-24T08:49:54.987Z,47.94
2023-09-24T08:51:56.787Z,47.80
2023-09-24T08:54:02.017Z,47.96
2023-09-24T08:56:05.065Z,47.28
2023-09-24T08:58:06.741Z,46.86
2023-09-24T09:00:16.291Z,46.79
2023-09-24T09:02:18.288Z,46.86
2023-09-24T09:04:20.246Z,47.08
2023-09-24T09:06:36.840Z,47.05
2023-09-24T09:08:55.952Z,46.74
2023-09-24T09:11:01.198Z,46.68
2023-09-24T09:13:03.751Z,46.61
2023-09-24T09:15:17.180Z,46.49
2023-09-24T09:17:19.614Z,46.25
2023-09-24T09:19:23.308Z,46.58
2023-09-24T09:21:27.211Z,46.21
2023-09-24T09:23:39.736Z,46.37
2023-09-24T09:25:53.422Z,46.85
2023-09-24T09:27:55.580Z,47.14
2023-09-24T09:30:17.409Z,46.56
2023-09-24T09:32:19.199Z,46.72
2023-09-24T09:34:22.095Z,46.18
2023-09-24T09:36:31.769Z,46.22
2023-09-24T09:38:33.512Z,45.68
2023-09-24T09:40:36.358Z,45.85
2023-09-24T09:42:40.390Z,45.21
2023-09-24T09:44:42.380Z,45.62
2023-09-24T09:46:48.378Z,45.96
2023-09-24T09:48:57.344Z,45.61
2023-09-24T09:51:03.181Z,45.41
2023-09-24T09:53:09.156Z,45.46
2023-09-24T09:55:10.907Z,45.06
2023-09-24T09:57:13.176Z,44.76
2023-09-24T09:59:15.276Z,44.68
2023-09-24T10:01:21.653Z,43.78
2023-09-24T10:03:24.556Z,44.05
2023-09-24T10:05:28.916Z,44.14
2023-09-24T10:07:31.066Z,43.62
2023-09-24T10:09:32.800Z,43.52
2023-09-24T10:11:34.473Z,43.18
2023-09-24T10:13:52.789Z,43.05
2023-09-24T10:15:54.726Z,42.94
2023-09-24T10:18:08.642Z,42.83
2023-09-24T10:20:19.394Z,42.58
2023-09-24T10:22:29.690Z,42.89
2023-09-24T10:24:37.546Z,43.13
2023-09-24T10:27:02.820Z,42.65
2023-09-24T10:29:05.240Z,42.99
2023-09-24T10:31:08.011Z,42.84
2023-09-24T10:33:13.521Z,42.38
2023-09-24T10:35:15.671Z,42.68
2023-09-24T10:37:18.087Z,42.73
2023-09-24T10:39:21.891Z,42.63
2023-09-24T10:41:23.652Z,42.50
2023-09-24T10:43:25.462Z,42.77
2023-09-24T10:45:28.657Z,43.02
2023-09-24T10:47:31.859Z,42.83
2023-09-24T10:49:34.060Z,43.07
2023-09-24T10:51:35.980Z,42.71
2023-09-24T10:53:39.863Z,43.02
2023-09-24T10:55:45.357Z,43.05
2023-09-24T10:57:54.633Z,42.83
2023-09-24T10:59:56.394Z,43.04
2023-09-24T11:01:58.299Z,42.93
2023-09-24T11:04:00.259Z,42.41
2023-09-24T11:06:03.345Z,42.70
2023-09-24T11:08:05.312Z,43.17
2023-09-24T11:10:09.611Z,42.51
2023-09-24T11:12:13.416Z,42.41
2023-09-24T11:14:23.854Z,42.02
2023-09-24T11:16:25.605Z,43.15
2023-09-24T11:18:30.113Z,42.47
2023-09-24T11:20:33.510Z,42.61
2023-09-24T11:22:35.824Z,42.12
2023-09-24T11:24:38.799Z,42.29
2023-09-24T11:26:42.920Z,42.12
2023-09-24T11:28:44.824Z,42.16
2023-09-24T11:30:47.458Z,42.65
2023-09-24T11:32:51.424Z,42.41
2023-09-24T11:35:12.175Z,42.32
2023-09-24T11:37:13.916Z,42.29
2023-09-24T11:39:16.177Z,41.60
2023-09-24T11:41:19.206Z,42.15
2023-09-24T11:43:21.968Z,41.78
2023-09-24T11:45:49.778Z,41.38
2023-09-24T11:47:52.435Z,41.28
2023-09-24T11:49:54.226Z,41.63
2023-09-24T11:51:56.533Z,41.63
2023-09-24T11:53:58.353Z,41.73
2023-09-24T11:56:00.644Z,41.89
2023-09-24T11:58:03.863Z,42.26
2023-09-24T12:00:07.083Z,42.00
2023-09-24T12:02:09.338Z,42.17
2023-09-24T12:04:11.269Z,42.21
2023-09-24T12:06:15.693Z,42.27
2023-09-24T12:08:19.444Z,42.00
2023-09-24T12:10:22.693Z,42.13
2023-09-24T12:12:24.717Z,42.06
2023-09-24T12:14:27.496Z,42.08
2023-09-24T12:16:29.309Z,42.45
2023-09-24T12:18:36.298Z,42.65
2023-09-24T12:20:42.429Z,42.87
2023-09-24T12:22:44.690Z,42.74
2023-09-24T12:24:46.567Z,42.41
2023-09-24T12:26:48.350Z,42.94
2023-09-24T12:28:50.188Z,42.87
2023-09-24T12:30:54.474Z,42.62
2023-09-24T12:32:58.341Z,42.68
2023-09-24T12:35:00.239Z,42.27
2023-09-24T12:37:02.169Z,42.56
2023-09-24T12:39:04.223Z,42.34
2023-09-24T12:41:06.002Z,42.91
2023-09-24T12:43:09.701Z,43.03
2023-09-24T12:45:12.256Z,42.42
2023-09-24T12:47:14.132Z,42.65
2023-09-24T12:49:18.345Z,42.76
2023-09-24T12:51:20.026Z,42.60
2023-09-24T12:53:25.622Z,42.80
2023-09-24T12:55:29.727Z,43.73
2023-09-24T12:57:32.561Z,44.09
2023-09-24T12:59:35.128Z,44.04
2023-09-24T13:01:36.896Z,44.79
2023-09-24T13:03:41.338Z,45.37
2023-09-24T13:05:43.395Z,45.92
2023-09-24T13:07:48.021Z,45.66
2023-09-24T13:09:54.540Z,46.18
2023-09-24T13:11:59.631Z,46.94
2023-09-24T13:14:01.950Z,46.80
2023-09-24T13:16:03.925Z,46.65
2023-09-24T13:18:06.418Z,47.17
2023-09-24T13:20:08.463Z,46.76
2023-09-24T13:22:10.598Z,46.66
2023-09-24T13:24:17.137Z,46.96
2023-09-24T13:26:18.954Z,46.69
2023-09-24T13:28:21.018Z,46.85
2023-09-24T13:30:25.310Z,46.33
2023-09-24T13:32:27.245Z,46.67
2023-09-24T13:34:29.598Z,46.76
2023-09-24T13:36:35.297Z,46.62
2023-09-24T13:38:37.189Z,46.28
2023-09-24T13:40:40.810Z,46.67
2023-09-24T13:42:42.803Z,48.46
2023-09-24T13:44:46.925Z,47.87
2023-09-24T13:46:53.324Z,49.47
2023-09-24T13:48:55.208Z,50.19
2023-09-24T13:50:57.536Z,51.06
2023-09-24T13:53:01.823Z,52.00
2023-09-24T13:55:03.712Z,52.61
2023-09-24T13:57:06.579Z,52.36
2023-09-24T13:59:08.406Z,52.21
2023-09-24T14:01:11.777Z,51.95
2023-09-24T14:03:14.017Z,52.16
2023-09-24T14:05:17.931Z,53.64
2023-09-24T14:07:22.180Z,53.55
2023-09-24T14:09:43.751Z,54.18
2023-09-24T14:12:08.941Z,55.08
2023-09-24T14:14:11.313Z,56.22
2023-09-24T14:16:14.135Z,55.80
2023-09-24T14:18:16.996Z,57.75
2023-09-24T14:20:19.446Z,58.84
2023-09-24T14:22:21.416Z,58.77
2023-09-24T14:24:23.242Z,58.67
2023-09-24T14:26:27.247Z,58.46
2023-09-24T14:28:32.641Z,59.24
2023-09-24T14:30:40.102Z,59.59
2023-09-24T14:32:41.831Z,60.35
2023-09-24T14:34:43.685Z,60.55
2023-09-24T14:36:46.972Z,61.98
2023-09-24T14:38:49.248Z,63.63
2023-09-24T14:40:51.619Z,64.97
2023-09-24T14:42:53.503Z,63.93
2023-09-24T14:44:55.301Z,63.47
2023-09-24T14:46:57.649Z,62.61
2023-09-24T14:48:59.483Z,61.42
2023-09-24T14:51:04.732Z,62.39
2023-09-24T14:53:08.040Z,63.46
2023-09-24T14:55:11.704Z,63.86
2023-09-24T14:57:13.537Z,64.16
2023-09-24T14:59:15.441Z,64.63
2023-09-24T15:01:18.975Z,64.50
2023-09-24T15:03:21.327Z,63.41
2023-09-24T15:05:23.647Z,63.68
2023-09-24T15:07:25.698Z,62.52
2023-09-24T15:09:27.570Z,63.39
2023-09-24T15:11:29.392Z,64.56
2023-09-24T15:13:32.540Z,65.75
2023-09-24T15:15:35.768Z,67.04
2023-09-24T15:17:37.687Z,67.02
2023-09-24T15:19:39.652Z,67.37
2023-09-24T15:21:41.539Z,66.62
2023-09-24T15:23:43.280Z,66.62
2023-09-24T15:25:46.593Z,66.42
2023-09-24T15:27:48.469Z,66.14
2023-09-24T15:29:51.529Z,65.72
2023-09-24T15:31:54.867Z,65.52
2023-09-24T15:33:59.110Z,65.57
2023-09-24T15:36:01.127Z,67.50
2023-09-24T15:38:07.689Z,67.87
2023-09-24T15:40:11.450Z,68.13
2023-09-24T15:42:13.351Z,68.91
2023-09-24T15:44:16.282Z,68.96
2023-09-24T15:46:18.426Z,69.07
2023-09-24T15:48:22.673Z,68.62
2023-09-24T15:50:25.449Z,67.35
2023-09-24T15:52:27.266Z,67.55
2023-09-24T15:54:30.275Z,66.05
2023-09-24T15:56:35.279Z,65.46
2023-09-24T15:58:38.310Z,65.31
2023-09-24T16:00:40.492Z,64.91
2023-09-24T16:02:42.334Z,65.21
2023-09-24T16:04:44.231Z,65.48
2023-09-24T16:06:46.026Z,64.83
2023-09-24T16:08:48.011Z,65.18
2023-09-24T16:10:52.970Z,65.03
2023-09-24T16:12:54.933Z,65.27
2023-09-24T16:14:57.166Z,65.61
2023-09-24T16:16:59.044Z,65.31
2023-09-24T16:19:01.039Z,65.47
2023-09-24T16:21:02.904Z,65.58
2023-09-24T16:23:04.821Z,65.77
2023-09-24T16:25:07.437Z,65.27
2023-09-24T16:27:10.531Z,65.07
2023-09-24T16:29:12.476Z,65.23
2023-09-24T16:31:14.274Z,65.10
2023-09-24T16:33:16.553Z,65.74
2023-09-24T16:35:18.801Z,65.91
2023-09-24T16:37:21.806Z,66.36
2023-09-24T16:39:24.829Z,66.46
2023-09-24T16:41:27.695Z,66.82
2023-09-24T16:43:29.402Z,67.07
2023-09-24T16:45:31.193Z,66.49
2023-09-24T16:47:34.596Z,66.39
2023-09-24T16:49:36.797Z,66.56
2023-09-24T16:51:39.875Z,66.79
2023-09-24T16:53:41.733Z,66.62
2023-09-24T16:55:43.525Z,66.63
2023-09-24T16:57:46.850Z,66.54
2023-09-24T16:59:48.935Z,66.37
2023-09-24T17:01:52.632Z,66.34
2023-09-24T17:03:55.232Z,66.89
2023-09-24T17:06:01.486Z,66.78
2023-09-24T17:08:04.360Z,66.82
2023-09-24T17:10:10.570Z,65.70
2023-09-24T17:12:12.439Z,65.87
2023-09-24T17:14:16.229Z,65.19
2023-09-24T17:16:21.064Z,65.00
2023-09-24T17:18:22.986Z,64.21
2023-09-24T17:20:26.833Z,63.98
2023-09-24T17:22:28.549Z,63.35
2023-09-24T17:24:33.070Z,63.59
2023-09-24T17:26:35.960Z,62.65
2023-09-24T17:28:38.323Z,62.52
2023-09-24T17:30:40.206Z,62.13
2023-09-24T17:32:43.160Z,61.69
2023-09-24T17:34:44.893Z,61.58
2023-09-24T17:36:46.615Z,61.81
2023-09-24T17:38:51.228Z,61.01
2023-09-24T17:40:53.547Z,60.80
2023-09-24T17:42:55.277Z,60.73
2023-09-24T17:44:57.131Z,61.07
2023-09-24T17:49:24.058Z,60.77
2023-09-24T17:51:26.039Z,61.53
2023-09-24T17:53:29.617Z,61.50
2023-09-24T17:55:31.212Z,61.49
2023-09-24T17:57:34.599Z,61.73
2023-09-24T17:59:36.834Z,61.27
2023-09-24T18:01:39.118Z,61.72
2023-09-24T18:03:43.920Z,61.82
2023-09-24T18:05:45.988Z,61.43
2023-09-24T18:07:47.868Z,61.62
2023-09-24T18:09:49.771Z,61.41
2023-09-24T18:11:51.712Z,61.49
2023-09-24T18:13:57.427Z,61.69
2023-09-24T18:16:01.087Z,62.12
2023-09-24T18:18:05.540Z,62.30
2023-09-24T18:20:08.603Z,61.76
2023-09-24T18:22:11.368Z,62.15
2023-09-24T18:24:14.910Z,63.14
2023-09-24T18:26:16.648Z,63.97
2023-09-24T18:28:18.727Z,64.07
2023-09-24T18:30:20.882Z,64.54
2023-09-24T18:32:22.618Z,65.32
2023-09-24T18:34:24.821Z,65.97
2023-09-24T18:36:26.950Z,66.57
2023-09-24T18:38:29.161Z,67.11
2023-09-24T18:40:31.376Z,67.19
2023-09-24T18:42:34.883Z,67.10
2023-09-24T18:44:36.678Z,67.99
2023-09-24T18:46:39.025Z,68.15
2023-09-24T18:48:40.962Z,68.85
2023-09-24T18:50:43.413Z,68.84
2023-09-24T18:52:46.544Z,68.91
2023-09-24T18:54:48.233Z,69.64
2023-09-24T18:56:49.999Z,69.71
2023-09-24T18:58:54.571Z,70.06
2023-09-24T19:00:57.884Z,70.21
2023-09-24T19:02:59.788Z,70.60
2023-09-24T19:05:01.594Z,70.37
2023-09-24T19:07:07.319Z,70.37
2023-09-24T19:09:09.796Z,70.20
2023-09-24T19:11:11.749Z,70.07
2023-09-24T19:13:14.819Z,70.14
2023-09-24T19:15:17.194Z,70.32
2023-09-24T19:17:20.213Z,69.90
2023-09-24T19:19:22.173Z,70.26
2023-09-24T19:21:27.364Z,69.63
2023-09-24T19:23:30.535Z,69.72
2023-09-24T19:25:32.285Z,69.47
2023-09-24T19:27:34.172Z,69.49
2023-09-24T19:29:36.013Z,69.28
2023-09-24T19:31:39.702Z,68.82
2023-09-24T19:33:42.217Z,68.48
2023-09-24T19:35:44.192Z,68.99
2023-09-24T19:37:46.087Z,69.01
2023-09-24T19:39:49.943Z,68.96
2023-09-24T19:41:51.820Z,69.20
2023-09-24T19:43:55.107Z,68.85
2023-09-24T19:45:59.585Z,69.09
2023-09-24T19:48:01.545Z,68.18
2023-09-24T19:50:06.031Z,67.96
2023-09-24T19:52:08.073Z,68.20
2023-09-24T19:54:10.520Z,68.00
2023-09-24T19:56:18.626Z,67.85
2023-09-24T19:58:23.016Z,67.72
2023-09-24T20:00:26.782Z,67.91
2023-09-24T20:02:29.084Z,68.69
2023-09-24T20:04:30.874Z,70.11
2023-09-24T20:06:32.859Z,70.31
2023-09-24T20:08:36.337Z,70.57
2023-09-24T20:10:38.087Z,70.54
2023-09-24T20:12:39.933Z,70.61
2023-09-24T20:14:41.686Z,70.75
2023-09-24T20:16:43.752Z,71.46
2023-09-24T20:18:45.667Z,71.98
2023-09-24T20:20:48.501Z,72.07
2023-09-24T20:22:50.455Z,72.01
2023-09-24T20:24:56.793Z,71.66
2023-09-24T20:26:58.630Z,71.25
2023-09-24T20:29:01.946Z,71.98
2023-09-24T20:31:05.469Z,72.22
2023-09-24T20:33:21.294Z,72.58
2023-09-24T20:35:28.799Z,72.88
2023-09-24T20:37:30.512Z,72.91
2023-09-24T20:39:34.257Z,72.33
2023-09-24T20:41:39.944Z,71.93
2023-09-24T20:43:45.041Z,72.16
2023-09-24T20:46:08.569Z,71.84
2023-09-24T20:48:10.937Z,71.76
2023-09-24T20:50:14.406Z,71.76
2023-09-24T20:52:16.365Z,71.80
2023-09-24T20:54:18.129Z,71.74
2023-09-24T20:56:20.424Z,71.77
2023-09-24T20:58:22.090Z,71.51
2023-09-24T21:00:30.987Z,70.94
2023-09-24T21:02:32.954Z,70.95
2023-09-24T21:04:37.414Z,70.90
2023-09-24T21:06:39.380Z,70.73
2023-09-24T21:08:41.290Z,70.37
2023-09-24T21:10:43.068Z,69.89
2023-09-24T21:12:45.997Z,69.30
2023-09-24T21:14:47.682Z,68.69
2023-09-24T21:16:51.130Z,67.90
2023-09-24T21:18:54.088Z,67.71
2023-09-24T21:20:56.244Z,66.93
2023-09-24T21:22:58.174Z,66.75
2023-09-24T21:24:59.988Z,66.06
2023-09-24T21:27:02.208Z,65.68
2023-09-24T21:29:03.896Z,65.74
2023-09-24T21:31:07.756Z,65.77
2023-09-24T21:33:09.566Z,65.02
2023-09-24T21:35:11.660Z,65.20
2023-09-24T21:37:16.955Z,64.78
2023-09-24T21:39:18.700Z,64.44
2023-09-24T21:41:20.597Z,64.38
2023-09-24T21:43:25.934Z,64.72
2023-09-24T21:45:27.862Z,64.82
2023-09-24T21:47:33.391Z,64.38
2023-09-24T21:49:35.276Z,64.59
2023-09-24T21:51:37.096Z,64.28
2023-09-24T21:53:39.447Z,64.42
2023-09-24T21:55:41.593Z,64.12
2023-09-24T21:57:43.315Z,64.17
2023-09-24T21:59:45.528Z,64.36
2023-09-24T22:01:55.568Z,64.33
2023-09-24T22:03:59.198Z,64.39
2023-09-24T22:06:01.984Z,64.84
2023-09-24T22:08:04.518Z,64.41
2023-09-24T22:10:07.558Z,63.87
2023-09-24T22:12:09.722Z,63.44
2023-09-24T22:14:31.470Z,63.27
2023-09-24T22:16:33.420Z,62.69
2023-09-24T22:18:35.783Z,61.98
2023-09-24T22:20:37.819Z,61.42
2023-09-24T22:22:39.634Z,61.28
2023-09-24T22:24:41.451Z,60.78
2023-09-24T22:26:43.408Z,60.18
2023-09-24T22:28:45.279Z,60.19
2023-09-24T22:30:47.044Z,59.68
2023-09-24T22:32:48.763Z,59.63
2023-09-24T22:34:50.760Z,59.53
2023-09-24T22:36:52.445Z,59.64
2023-09-24T22:38:54.325Z,59.61
2023-09-24T22:40:56.091Z,59.24
2023-09-24T22:42:58.755Z,59.46
2023-09-24T22:45:08.207Z,59.43
2023-09-24T22:47:10.267Z,59.26
2023-09-24T22:49:12.364Z,58.95
2023-09-24T22:51:14.063Z,58.90
2023-09-24T22:53:15.769Z,58.76
2023-09-24T22:55:17.645Z,58.70
2023-09-24T22:57:19.474Z,58.31
2023-09-24T22:59:21.165Z,57.83
2023-09-24T23:01:22.837Z,58.32
2023-09-24T23:03:24.737Z,58.21
2023-09-24T23:05:26.566Z,58.07
2023-09-24T23:07:28.297Z,58.22
2023-09-24T23:09:30.068Z,58.99
2023-09-24T23:11:36.054Z,58.33
2023-09-24T23:13:38.994Z,58.84
2023-09-24T23:15:41.379Z,58.50
2023-09-24T23:17:43.458Z,58.73
2023-09-24T23:19:45.192Z,58.97
2023-09-24T23:21:47.907Z,58.57
2023-09-24T23:23:49.580Z,59.13
2023-09-24T23:25:52.646Z,58.77
2023-09-24T23:27:54.462Z,59.05
2023-09-24T23:29:57.246Z,59.00
2023-09-24T23:31:59.210Z,58.86
2023-09-24T23:34:00.959Z,59.15
2023-09-24T23:36:04.948Z,59.75
2023-09-24T23:38:07.739Z,59.35
2023-09-24T23:40:10.388Z,59.20
2023-09-24T23:42:14.378Z,59.63
2023-09-24T23:44:16.273Z,59.78
2023-09-24T23:46:18.796Z,59.64
2023-09-24T23:48:20.575Z,59.73
2023-09-24T23:50:22.823Z,60.00
2023-09-24T23:52:24.714Z,59.80
2023-09-24T23:54:26.639Z,59.87
2023-09-24T23:56:28.506Z,59.94
2023-09-24T23:58:30.371Z,59.58
